New Point, Virginia
Current Conditions -  °F | °C
As of 6:58 AM on Thursday 23 Oct 2014 (Local Time) from KLFI Reporting Station
Overcast Overcast  
Wind Chill: 52°   Ceiling: 4100
Heat Index: 52°   Visibility: 10mi
Dew Point: 43°   Wind: 14mph
Humidity: 71%   Direction: 290°WNW
Pressure: 29.89"   Gusts: 21mph
Location:  37.35°N, 76.28°W
Report Text: KLFI 231058Z AUTO 29012G18KT 10SM BKN041 OVC075 11/06 A2989 RMK AO2 SLP129 T01130063 $
Loading
Personal Weather Stations






























Interactive Weather Map
Tropical Storm Tracking
New forecast layout! Learn more

10-Day Weather Forecast

Advertisements
Track Severe Weather on mobile